createdAt,value
2023-04-17T00:00:05.187Z,7.68
2023-04-17T00:02:33.722Z,7.78
2023-04-17T00:05:01.307Z,7.84
2023-04-17T00:07:28.931Z,7.79
2023-04-17T00:09:56.427Z,7.77
2023-04-17T00:12:23.894Z,7.75
2023-04-17T00:14:51.301Z,7.68
2023-04-17T00:17:18.914Z,7.78
2023-04-17T00:19:46.828Z,7.68
2023-04-17T00:22:14.266Z,7.64
2023-04-17T00:24:41.692Z,7.70
2023-04-17T00:27:10.196Z,7.72
2023-04-17T00:29:37.793Z,7.75
2023-04-17T00:32:05.761Z,7.61
2023-04-17T00:34:33.755Z,7.71
2023-04-17T00:37:01.252Z,7.62
2023-04-17T00:39:28.665Z,7.70
2023-04-17T00:41:57.557Z,7.71
2023-04-17T00:44:25.110Z,7.63
2023-04-17T00:46:52.979Z,7.69
2023-04-17T00:49:20.813Z,7.59
2023-04-17T00:51:50.552Z,7.65
2023-04-17T00:54:19.319Z,7.70
2023-04-17T00:56:47.001Z,7.71
2023-04-17T00:59:17.681Z,7.62
2023-04-17T01:01:45.661Z,7.66
2023-04-17T01:04:14.003Z,7.61
2023-04-17T01:06:42.094Z,7.63
2023-04-17T01:09:10.008Z,7.69
2023-04-17T01:11:39.384Z,7.67
2023-04-17T01:14:07.000Z,7.71
2023-04-17T01:16:35.676Z,7.66
2023-04-17T01:19:03.279Z,7.66
2023-04-17T01:21:31.467Z,7.66
2023-04-17T01:24:03.628Z,7.61
2023-04-17T01:26:33.009Z,7.61
2023-04-17T01:29:00.896Z,7.66
2023-04-17T01:31:30.546Z,7.63
2023-04-17T01:34:00.775Z,7.63
2023-04-17T01:36:28.719Z,7.56
2023-04-17T01:38:56.598Z,7.46
2023-04-17T01:41:24.408Z,7.51
2023-04-17T01:43:51.937Z,7.56
2023-04-17T01:46:19.652Z,7.56
2023-04-17T01:48:47.115Z,7.52
2023-04-17T01:51:14.668Z,7.52
2023-04-17T01:53:42.242Z,7.46
2023-04-17T01:56:09.843Z,7.43
2023-04-17T01:58:37.365Z,7.47
2023-04-17T02:01:05.771Z,7.59
2023-04-17T02:03:33.329Z,7.62
2023-04-17T02:06:01.217Z,7.63
2023-04-17T02:08:29.933Z,7.52
2023-04-17T02:10:59.389Z,7.54
2023-04-17T02:13:26.918Z,7.54
2023-04-17T02:15:54.439Z,7.59
2023-04-17T02:18:22.207Z,7.53
2023-04-17T02:20:49.908Z,7.58
2023-04-17T02:23:17.417Z,7.64
2023-04-17T02:25:44.927Z,7.62
2023-04-17T02:28:12.427Z,7.63
2023-04-17T02:30:40.108Z,7.61
2023-04-17T02:33:07.713Z,7.63
2023-04-17T02:35:35.560Z,7.64
2023-04-17T02:38:03.110Z,7.59
2023-04-17T02:40:33.575Z,7.58
2023-04-17T02:43:03.130Z,7.63
2023-04-17T02:45:31.268Z,7.61
2023-04-17T02:47:58.917Z,7.56
2023-04-17T02:50:26.672Z,7.51
2023-04-17T02:53:06.205Z,7.54
2023-04-17T02:55:33.971Z,7.53
2023-04-17T02:58:01.738Z,7.50
2023-04-17T03:00:29.371Z,7.50
2023-04-17T03:02:57.250Z,7.50
2023-04-17T03:05:24.956Z,7.48
2023-04-17T03:07:54.907Z,7.52
2023-04-17T03:10:25.139Z,7.52
2023-04-17T03:12:53.275Z,7.54
2023-04-17T03:15:20.896Z,7.59
2023-04-17T03:17:48.728Z,7.64
2023-04-17T03:20:16.505Z,7.63
2023-04-17T03:22:44.003Z,7.57
2023-04-17T03:25:11.707Z,7.59
2023-04-17T03:27:46.170Z,7.67
2023-04-17T03:30:15.092Z,7.64
2023-04-17T03:32:46.776Z,7.67
2023-04-17T03:35:14.415Z,7.61
2023-04-17T03:37:42.467Z,7.65
2023-04-17T03:40:12.388Z,7.58
2023-04-17T03:42:39.996Z,7.54
2023-04-17T03:45:08.260Z,7.62
2023-04-17T03:47:35.794Z,7.64
2023-04-17T03:50:04.807Z,7.61
2023-04-17T03:52:37.164Z,7.58
2023-04-17T03:55:06.732Z,7.54
2023-04-17T03:57:34.200Z,7.54
2023-04-17T04:00:02.197Z,7.48
2023-04-17T04:02:46.848Z,7.52
2023-04-17T04:05:19.073Z,7.48
2023-04-17T04:07:47.086Z,7.53
2023-04-17T04:10:21.579Z,7.57
2023-04-17T04:12:49.082Z,7.53
2023-04-17T04:15:16.784Z,7.51
2023-04-17T04:17:46.812Z,7.52
2023-04-17T04:20:14.664Z,7.53
2023-04-17T04:22:44.777Z,7.51
2023-04-17T04:25:12.865Z,7.51
2023-04-17T04:27:53.087Z,7.54
2023-04-17T04:30:25.659Z,7.54
2023-04-17T04:33:01.329Z,7.53
2023-04-17T04:35:30.313Z,7.52
2023-04-17T04:38:02.410Z,7.56
2023-04-17T04:40:38.401Z,7.55
2023-04-17T04:43:07.680Z,7.58
2023-04-17T04:45:40.297Z,7.55
2023-04-17T04:48:07.917Z,7.62
2023-04-17T04:50:35.598Z,7.62
2023-04-17T04:53:03.143Z,7.62
2023-04-17T04:55:42.629Z,7.58
2023-04-17T04:58:10.165Z,7.58
2023-04-17T05:00:39.286Z,7.61
2023-04-17T05:03:07.899Z,7.64
2023-04-17T05:05:36.104Z,7.71
2023-04-17T05:08:04.604Z,7.72
2023-04-17T05:10:34.972Z,7.68
2023-04-17T05:13:05.024Z,7.74
2023-04-17T05:15:32.969Z,7.80
2023-04-17T05:18:01.303Z,7.79
2023-04-17T05:20:31.074Z,7.85
2023-04-17T05:22:59.260Z,7.86
2023-04-17T05:25:26.802Z,7.83
2023-04-17T05:27:56.957Z,7.81
2023-04-17T05:30:24.621Z,7.90
2023-04-17T05:33:05.556Z,7.89
2023-04-17T05:35:54.063Z,7.86
2023-04-17T05:38:23.978Z,7.91
2023-04-17T05:40:53.353Z,7.87
2023-04-17T05:43:20.858Z,7.99
2023-04-17T05:45:49.275Z,7.91
2023-04-17T05:48:16.869Z,7.92
2023-04-17T05:50:45.737Z,7.96
2023-04-17T05:53:13.479Z,7.91
2023-04-17T05:55:49.100Z,7.97
2023-04-17T05:58:23.732Z,7.98
2023-04-17T06:00:54.927Z,7.95
2023-04-17T06:03:24.194Z,7.93
2023-04-17T06:05:58.935Z,7.81
2023-04-17T06:08:28.234Z,7.85
2023-04-17T06:10:56.400Z,7.76
2023-04-17T06:13:24.723Z,7.70
2023-04-17T06:15:52.980Z,7.70
2023-04-17T06:18:20.490Z,7.46
2023-04-17T06:20:48.315Z,7.31
2023-04-17T06:23:15.833Z,7.33
2023-04-17T06:25:43.286Z,7.23
2023-04-17T06:28:10.873Z,7.02
2023-04-17T06:30:38.553Z,7.14
2023-04-17T06:33:08.051Z,7.24
2023-04-17T06:35:37.879Z,7.14
2023-04-17T06:38:17.172Z,7.10
2023-04-17T06:40:45.071Z,7.23
2023-04-17T06:43:12.994Z,7.18
2023-04-17T06:45:43.084Z,7.24
2023-04-17T06:48:10.746Z,7.16
2023-04-17T06:50:39.862Z,7.12
2023-04-17T06:53:07.411Z,7.11
2023-04-17T06:55:34.944Z,7.05
2023-04-17T06:58:02.453Z,7.13
2023-04-17T07:00:29.952Z,7.04
2023-04-17T07:02:57.800Z,7.19
2023-04-17T07:05:25.569Z,7.21
2023-04-17T07:07:52.989Z,7.44
2023-04-17T07:10:20.680Z,7.32
2023-04-17T07:12:48.187Z,7.12
2023-04-17T07:15:16.627Z,7.10
2023-04-17T07:17:44.240Z,7.01
2023-04-17T07:20:12.328Z,7.03
2023-04-17T07:22:40.027Z,7.16
2023-04-17T07:25:08.104Z,7.07
2023-04-17T07:27:38.406Z,7.01
2023-04-17T07:30:08.288Z,7.10
2023-04-17T07:32:37.068Z,7.09
2023-04-17T07:35:04.998Z,7.13
2023-04-17T07:37:34.551Z,7.09
2023-04-17T07:40:02.269Z,7.14
2023-04-17T07:42:29.684Z,7.06
2023-04-17T07:44:57.556Z,7.13
2023-04-17T07:47:25.089Z,7.22
2023-04-17T07:49:52.657Z,7.27
2023-04-17T07:52:20.139Z,7.22
2023-04-17T07:54:47.883Z,7.18
2023-04-17T07:57:15.691Z,7.18
2023-04-17T07:59:43.181Z,7.26
2023-04-17T08:02:11.201Z,7.25
2023-04-17T08:04:40.481Z,7.44
2023-04-17T08:07:10.817Z,7.42
2023-04-17T08:09:40.239Z,7.45
2023-04-17T08:12:08.589Z,7.42
2023-04-17T08:14:36.348Z,7.29
2023-04-17T08:17:04.347Z,7.20
2023-04-17T08:19:32.071Z,7.26
2023-04-17T08:22:04.185Z,7.06
2023-04-17T08:24:32.033Z,6.98
2023-04-17T08:26:59.574Z,6.96
2023-04-17T08:29:27.268Z,6.90
2023-04-17T08:32:06.860Z,6.98
2023-04-17T08:34:40.739Z,7.03
2023-04-17T08:37:08.207Z,6.88
2023-04-17T08:39:35.806Z,6.74
2023-04-17T08:42:08.000Z,6.92
2023-04-17T08:44:36.138Z,6.83
2023-04-17T08:47:04.817Z,6.93
2023-04-17T08:49:35.581Z,6.84
2023-04-17T08:52:08.182Z,6.97
2023-04-17T08:54:36.675Z,6.76
2023-04-17T08:57:05.514Z,6.79
2023-04-17T08:59:33.508Z,6.82
2023-04-17T09:02:08.827Z,6.70
2023-04-17T09:04:47.252Z,6.84
2023-04-17T09:07:18.489Z,6.98
2023-04-17T09:09:51.248Z,6.98
2023-04-17T09:12:23.139Z,7.05
2023-04-17T09:14:51.058Z,7.11
2023-04-17T09:17:20.353Z,7.16
2023-04-17T09:20:14.526Z,7.15
2023-04-17T09:22:42.410Z,7.23
2023-04-17T09:25:17.887Z,7.08
2023-04-17T09:27:46.147Z,6.90
2023-04-17T09:30:13.937Z,6.94
2023-04-17T09:32:41.632Z,7.00
2023-04-17T09:35:09.664Z,7.13
2023-04-17T09:37:54.593Z,7.17
2023-04-17T09:40:23.657Z,7.09
2023-04-17T09:42:57.009Z,7.24
2023-04-17T09:45:25.810Z,7.20
2023-04-17T09:47:56.721Z,7.25
2023-04-17T09:50:27.336Z,7.52
2023-04-17T09:52:56.256Z,7.52
2023-04-17T09:55:26.822Z,7.53
2023-04-17T09:57:55.709Z,7.64
2023-04-17T10:00:27.234Z,7.74
2023-04-17T10:02:57.019Z,7.65
2023-04-17T10:05:31.615Z,7.75
2023-04-17T10:07:59.241Z,7.81
2023-04-17T10:10:32.482Z,7.85
2023-04-17T10:13:08.319Z,8.04
2023-04-17T10:15:38.988Z,7.99
2023-04-17T10:18:24.061Z,7.96
2023-04-17T10:20:53.783Z,7.82
2023-04-17T10:23:36.626Z,7.81
2023-04-17T10:26:25.874Z,8.00
2023-04-17T10:28:54.710Z,7.69
2023-04-17T10:31:25.609Z,7.79
2023-04-17T10:33:54.545Z,7.86
2023-04-17T10:36:49.624Z,8.14
2023-04-17T10:39:20.649Z,8.33
2023-04-17T10:42:06.757Z,8.32
2023-04-17T10:44:35.438Z,8.42
2023-04-17T10:47:16.113Z,8.24
2023-04-17T10:50:00.713Z,7.91
2023-04-17T10:52:40.594Z,7.94
2023-04-17T10:55:10.997Z,7.96
2023-04-17T10:57:58.845Z,7.77
2023-04-17T11:00:32.587Z,7.52
2023-04-17T11:03:02.030Z,7.70
2023-04-17T11:05:31.539Z,7.72
2023-04-17T11:07:59.624Z,7.51
2023-04-17T11:10:27.432Z,7.49
2023-04-17T11:12:56.745Z,7.64
2023-04-17T11:15:31.489Z,7.93
2023-04-17T11:18:01.019Z,8.04
2023-04-17T11:20:33.045Z,8.03
2023-04-17T11:23:05.073Z,8.15
2023-04-17T11:25:34.604Z,8.24
2023-04-17T11:28:05.976Z,8.23
2023-04-17T11:30:35.456Z,8.02
2023-04-17T11:33:06.138Z,7.71
2023-04-17T11:35:38.617Z,7.58
2023-04-17T11:38:23.394Z,7.31
2023-04-17T11:40:56.626Z,7.31
2023-04-17T11:43:24.144Z,7.42
2023-04-17T11:46:02.113Z,7.52
2023-04-17T11:48:32.367Z,7.37
2023-04-17T11:51:01.554Z,7.47
2023-04-17T11:53:29.643Z,7.69
2023-04-17T11:56:13.280Z,7.69
2023-04-17T11:58:54.240Z,7.80
2023-04-17T12:01:26.596Z,7.91
2023-04-17T12:03:58.154Z,8.00
2023-04-17T12:06:37.186Z,8.13
2023-04-17T12:09:06.593Z,8.18
2023-04-17T12:11:35.227Z,7.82
2023-04-17T12:14:05.202Z,7.92
2023-04-17T12:16:32.894Z,7.68
2023-04-17T12:19:00.531Z,7.62
2023-04-17T12:21:28.051Z,7.48
2023-04-17T12:23:55.712Z,7.38
2023-04-17T12:26:25.030Z,7.33
2023-04-17T12:28:52.683Z,7.24
2023-04-17T12:31:20.146Z,7.36
2023-04-17T12:33:47.942Z,7.32
2023-04-17T12:36:15.586Z,7.27
2023-04-17T12:38:43.207Z,7.30
2023-04-17T12:41:10.889Z,7.53
2023-04-17T12:43:38.388Z,7.55
2023-04-17T12:46:06.169Z,7.67
2023-04-17T12:48:58.406Z,7.75
2023-04-17T12:51:29.841Z,7.46
2023-04-17T12:53:57.484Z,7.47
2023-04-17T12:56:25.006Z,7.38
2023-04-17T12:58:52.465Z,7.24
2023-04-17T13:01:20.114Z,7.17
2023-04-17T13:03:47.808Z,7.24
2023-04-17T13:06:16.940Z,7.25
2023-04-17T13:08:44.422Z,7.31
2023-04-17T13:11:11.912Z,7.38
2023-04-17T13:13:39.366Z,7.42
2023-04-17T13:16:07.398Z,7.37
2023-04-17T13:18:34.888Z,7.43
2023-04-17T13:21:02.333Z,7.38
2023-04-17T13:23:29.877Z,7.34
2023-04-17T13:25:57.299Z,7.33
2023-04-17T13:28:24.757Z,7.32
2023-04-17T13:30:53.195Z,7.19
2023-04-17T13:33:20.705Z,7.11
2023-04-17T13:35:48.379Z,7.15
2023-04-17T13:38:16.048Z,7.09
2023-04-17T13:40:43.537Z,7.08
2023-04-17T13:43:11.719Z,7.11
2023-04-17T13:45:39.239Z,7.07
2023-04-17T13:48:06.953Z,7.08
2023-04-17T13:50:34.570Z,7.07
2023-04-17T13:53:02.086Z,7.07
2023-04-17T13:55:29.654Z,7.04
2023-04-17T13:57:57.667Z,7.19
2023-04-17T14:00:25.612Z,7.08
2023-04-17T14:02:53.289Z,7.14
2023-04-17T14:05:20.871Z,7.21
2023-04-17T14:07:48.388Z,7.09
2023-04-17T14:10:15.866Z,7.13
2023-04-17T14:12:44.252Z,7.16
2023-04-17T14:15:13.168Z,7.24
2023-04-17T14:17:43.367Z,7.09
2023-04-17T14:20:11.841Z,7.14
2023-04-17T14:22:39.310Z,7.31
2023-04-17T14:25:07.316Z,7.03
2023-04-17T14:27:36.430Z,7.02
2023-04-17T14:30:04.303Z,6.95
2023-04-17T14:32:32.053Z,7.07
2023-04-17T14:34:59.826Z,7.04
2023-04-17T14:37:28.607Z,7.05
2023-04-17T14:39:56.101Z,6.96
2023-04-17T14:42:23.610Z,7.08
2023-04-17T14:44:51.069Z,6.97
2023-04-17T14:47:19.372Z,6.92
2023-04-17T14:49:46.891Z,6.88
2023-04-17T14:52:14.896Z,6.96
2023-04-17T14:54:42.368Z,6.84
2023-04-17T14:57:09.881Z,6.77
2023-04-17T14:59:37.535Z,6.68
2023-04-17T15:02:07.765Z,6.63
2023-04-17T15:04:35.535Z,6.57
2023-04-17T15:07:04.894Z,6.57
2023-04-17T15:09:32.395Z,6.59
2023-04-17T15:12:00.971Z,6.63
2023-04-17T15:14:30.038Z,6.63
2023-04-17T15:16:59.101Z,6.70
2023-04-17T15:19:29.302Z,6.71
2023-04-17T15:21:56.866Z,6.68
2023-04-17T15:24:24.351Z,6.68
2023-04-17T15:26:51.856Z,6.71
2023-04-17T15:29:19.441Z,6.78
2023-04-17T15:31:46.880Z,6.72
2023-04-17T15:34:14.421Z,6.64
2023-04-17T15:36:42.068Z,6.75
2023-04-17T15:39:09.663Z,6.71
2023-04-17T15:41:40.852Z,6.82
2023-04-17T15:44:08.924Z,6.86
2023-04-17T15:46:36.740Z,6.87
2023-04-17T15:49:08.270Z,6.77
2023-04-17T15:51:36.854Z,6.85
2023-04-17T15:54:05.179Z,6.80
2023-04-17T15:56:32.887Z,6.81
2023-04-17T15:59:00.588Z,6.72
2023-04-17T16:01:28.827Z,6.78
2023-04-17T16:03:56.693Z,6.82
2023-04-17T16:06:24.536Z,6.73
2023-04-17T16:08:51.994Z,6.68
2023-04-17T16:11:19.427Z,6.72
2023-04-17T16:13:46.923Z,6.62
2023-04-17T16:16:14.445Z,6.68
2023-04-17T16:18:42.219Z,6.65
2023-04-17T16:21:12.869Z,6.65
2023-04-17T16:23:40.818Z,6.54
2023-04-17T16:26:08.518Z,6.58
2023-04-17T16:28:36.032Z,6.55
2023-04-17T16:31:03.578Z,6.51
2023-04-17T16:33:31.010Z,6.33
2023-04-17T16:35:58.584Z,6.25
2023-04-17T16:38:26.158Z,6.28
2023-04-17T16:40:57.109Z,6.29
2023-04-17T16:43:25.183Z,6.29
2023-04-17T16:45:52.717Z,6.24
2023-04-17T16:48:20.253Z,6.23
2023-04-17T16:50:48.008Z,6.24
2023-04-17T16:53:15.685Z,6.26
2023-04-17T16:55:43.166Z,6.19
2023-04-17T16:58:10.844Z,6.16
2023-04-17T17:00:38.468Z,6.12
2023-04-17T17:03:06.142Z,6.14
2023-04-17T17:05:33.711Z,6.03
2023-04-17T17:08:01.245Z,6.11
2023-04-17T17:10:28.747Z,6.08
2023-04-17T17:12:56.249Z,6.00
2023-04-17T17:15:23.831Z,6.03
2023-04-17T17:17:51.414Z,6.04
2023-04-17T17:20:19.320Z,6.01
2023-04-17T17:22:46.829Z,5.94
2023-04-17T17:25:14.444Z,5.92
2023-04-17T17:27:42.014Z,5.90
2023-04-17T17:30:09.903Z,5.87
2023-04-17T17:32:37.404Z,5.86
2023-04-17T17:35:05.330Z,5.87
2023-04-17T17:37:32.852Z,5.87
2023-04-17T17:40:00.895Z,5.81
2023-04-17T17:42:28.561Z,5.86
2023-04-17T17:44:56.119Z,5.81
2023-04-17T17:47:23.743Z,5.97
2023-04-17T17:49:51.268Z,6.00
2023-04-17T17:52:18.722Z,6.06
2023-04-17T17:54:46.251Z,6.10
2023-04-17T17:57:13.822Z,6.05
2023-04-17T17:59:41.322Z,6.08
2023-04-17T18:02:08.859Z,5.92
2023-04-17T18:04:36.954Z,6.04
2023-04-17T18:07:04.480Z,5.99
2023-04-17T18:09:31.960Z,5.92
2023-04-17T18:11:59.508Z,5.99
2023-04-17T18:14:26.926Z,6.00
2023-04-17T18:16:54.399Z,5.95
2023-04-17T18:19:22.028Z,5.98
2023-04-17T18:21:49.588Z,6.01
2023-04-17T18:24:17.147Z,6.07
2023-04-17T18:26:44.749Z,5.97
2023-04-17T18:29:12.267Z,6.11
2023-04-17T18:31:39.760Z,6.22
2023-04-17T18:34:07.209Z,6.03
2023-04-17T18:36:34.633Z,5.92
2023-04-17T18:39:02.272Z,5.85
2023-04-17T18:41:29.833Z,5.75
2023-04-17T18:43:57.357Z,5.85
2023-04-17T18:46:26.372Z,5.82
2023-04-17T18:48:53.940Z,5.79
2023-04-17T18:51:21.542Z,5.81
2023-04-17T18:53:50.353Z,5.79
2023-04-17T18:56:17.964Z,5.87
2023-04-17T18:58:46.203Z,5.91
2023-04-17T19:01:13.833Z,5.84
2023-04-17T19:03:41.432Z,5.81
2023-04-17T19:06:09.142Z,5.86
2023-04-17T19:08:36.737Z,5.94
2023-04-17T19:11:04.270Z,5.88
2023-04-17T19:13:32.050Z,5.94
2023-04-17T19:15:59.602Z,5.94
2023-04-17T19:18:27.280Z,5.84
2023-04-17T19:20:54.773Z,6.00
2023-04-17T19:23:22.722Z,5.97
2023-04-17T19:25:56.527Z,5.95
2023-04-17T19:28:24.528Z,5.83
2023-04-17T19:30:51.819Z,5.71
2023-04-17T19:33:20.389Z,5.74
2023-04-17T19:35:48.106Z,5.68
2023-04-17T19:38:17.332Z,5.70
2023-04-17T19:41:15.267Z,5.80
2023-04-17T19:43:43.871Z,5.71
2023-04-17T19:46:13.516Z,5.69
2023-04-17T19:48:43.732Z,5.69
2023-04-17T19:51:12.513Z,5.78
2023-04-17T19:53:41.838Z,5.71
2023-04-17T19:56:10.681Z,5.70
2023-04-17T19:58:38.831Z,5.70
2023-04-17T20:01:06.496Z,5.72
2023-04-17T20:03:35.599Z,5.69
2023-04-17T20:06:03.602Z,5.61
2023-04-17T20:08:31.038Z,5.53
2023-04-17T20:10:58.576Z,5.40
2023-04-17T20:13:26.383Z,5.44
2023-04-17T20:15:53.995Z,5.43
2023-04-17T20:18:21.763Z,5.42
2023-04-17T20:20:49.428Z,5.48
2023-04-17T20:23:16.915Z,5.46
2023-04-17T20:25:44.468Z,5.56
2023-04-17T20:28:12.011Z,5.43
2023-04-17T20:30:39.557Z,5.55
2023-04-17T20:33:07.466Z,5.49
2023-04-17T20:35:35.111Z,5.43
2023-04-17T20:38:02.529Z,5.41
2023-04-17T20:40:30.025Z,5.42
2023-04-17T20:42:57.568Z,5.50
2023-04-17T20:45:25.496Z,5.53
2023-04-17T20:47:57.022Z,5.50
2023-04-17T20:50:26.129Z,5.63
2023-04-17T20:52:53.577Z,5.81
2023-04-17T20:55:21.469Z,5.71
2023-04-17T20:57:48.960Z,5.72
2023-04-17T21:00:16.726Z,5.80
2023-04-17T21:02:45.148Z,5.84
2023-04-17T21:05:12.687Z,5.83
2023-04-17T21:07:40.195Z,5.79
2023-04-17T21:10:08.484Z,5.91
2023-04-17T21:12:36.108Z,5.95
2023-04-17T21:15:03.798Z,5.96
2023-04-17T21:17:31.253Z,5.98
2023-04-17T21:19:58.798Z,6.04
2023-04-17T21:22:26.262Z,6.00
2023-04-17T21:24:53.862Z,5.97
2023-04-17T21:27:21.561Z,5.98
2023-04-17T21:29:49.226Z,6.01
2023-04-17T21:32:16.664Z,6.01
2023-04-17T21:34:44.175Z,5.87
2023-04-17T21:37:11.557Z,5.92
2023-04-17T21:39:39.051Z,5.93
2023-04-17T21:42:06.505Z,5.95
2023-04-17T21:44:33.966Z,5.98
2023-04-17T21:47:01.435Z,5.97
2023-04-17T21:49:28.900Z,5.99
2023-04-17T21:51:57.278Z,6.02
2023-04-17T21:54:26.911Z,5.99
2023-04-17T21:56:54.471Z,6.01
2023-04-17T21:59:21.927Z,5.98
2023-04-17T22:01:49.494Z,6.05
2023-04-17T22:04:17.120Z,6.05
2023-04-17T22:06:44.600Z,6.06
2023-04-17T22:09:12.892Z,6.05
2023-04-17T22:11:41.313Z,6.02
2023-04-17T22:14:08.825Z,5.87
2023-04-17T22:16:36.542Z,5.89
2023-04-17T22:19:04.048Z,5.96
2023-04-17T22:21:31.603Z,5.90
2023-04-17T22:23:59.522Z,5.85
2023-04-17T22:26:27.176Z,5.81
2023-04-17T22:28:54.731Z,5.86
2023-04-17T22:31:22.217Z,5.85
2023-04-17T22:33:49.688Z,5.85
2023-04-17T22:36:17.253Z,5.80
2023-04-17T22:38:44.652Z,5.84
2023-04-17T22:41:12.150Z,5.84
2023-04-17T22:43:39.673Z,5.86
2023-04-17T22:46:07.196Z,5.90
2023-04-17T22:48:35.149Z,5.93
2023-04-17T22:51:02.692Z,5.89
2023-04-17T22:53:31.565Z,5.91
2023-04-17T22:56:06.494Z,6.00
2023-04-17T22:58:34.371Z,5.90
2023-04-17T23:01:01.921Z,5.93
2023-04-17T23:03:29.701Z,5.91
2023-04-17T23:05:57.453Z,5.95
2023-04-17T23:08:24.896Z,5.94
2023-04-17T23:11:02.006Z,5.88
2023-04-17T23:13:31.624Z,6.01
2023-04-17T23:15:59.137Z,5.92
2023-04-17T23:18:26.644Z,5.95
2023-04-17T23:20:54.117Z,6.04
2023-04-17T23:23:21.690Z,6.04
2023-04-17T23:25:49.304Z,6.06
2023-04-17T23:28:16.820Z,6.06
2023-04-17T23:30:44.253Z,6.09
2023-04-17T23:33:11.953Z,6.05
2023-04-17T23:35:39.469Z,6.04
2023-04-17T23:38:07.002Z,6.03
2023-04-17T23:40:35.026Z,5.98
2023-04-17T23:43:02.571Z,6.03
2023-04-17T23:45:30.056Z,6.08
2023-04-17T23:47:57.824Z,6.12
2023-04-17T23:50:26.117Z,6.16
2023-04-17T23:52:55.000Z,6.15
2023-04-17T23:55:23.325Z,6.20
2023-04-17T23:57:50.836Z,6.12
